Time;durP1;ratioP1;P1;durP2;ratioP2;P2;SDS_P1;SDS_P2;PMS_P1;PMS_P2;Temp;Humidity;BMP_temperature;BMP_pressure;BME280_temperature;BME280_humidity;BME280_pressure;Samples;Min_cycle;Max_cycle;Signal;HPM_P1;HPM_P2
2021/11/29 00:00:18;;;;;;;94.22;24.92;;;0.40;99.90;;;;;;4444728;28;658829;-70
2021/11/29 00:03:10;;;;;;;96.27;26.20;;;0.40;99.90;;;;;;4435688;28;658744;-70
2021/11/29 00:05:57;;;;;;;108.30;25.73;;;0.40;99.90;;;;;;4432291;28;659852;-70
2021/11/29 00:08:46;;;;;;;102.27;26.97;;;0.40;99.90;;;;;;4448560;28;659571;-70
2021/11/29 00:11:33;;;;;;;90.23;24.67;;;0.40;99.90;;;;;;4467188;28;660765;-69
2021/11/29 00:14:21;;;;;;;69.20;19.50;;;0.40;99.90;;;;;;4438813;28;658815;-70
2021/11/29 00:17:09;;;;;;;110.72;24.30;;;0.40;99.90;;;;;;4455980;28;659901;-70
2021/11/29 00:19:58;;;;;;;117.30;24.37;;;0.40;99.90;;;;;;4437362;28;659683;-70
2021/11/29 00:22:46;;;;;;;123.40;26.00;;;0.40;99.90;;;;;;4442323;28;659927;-70
2021/11/29 00:25:33;;;;;;;92.63;23.70;;;0.40;99.90;;;;;;4457461;28;660165;-69
2021/11/29 00:28:21;;;;;;;100.97;25.70;;;0.30;99.90;;;;;;4435235;28;658672;-70
2021/11/29 00:31:09;;;;;;;91.83;24.07;;;0.30;99.90;;;;;;4451925;28;660745;-70
2021/11/29 00:33:57;;;;;;;81.87;22.23;;;0.30;99.90;;;;;;4433555;28;659120;-71
2021/11/29 00:36:46;;;;;;;84.57;22.02;;;0.30;99.90;;;;;;4454700;28;659267;-70
2021/11/29 00:39:33;;;;;;;106.90;24.42;;;0.30;99.90;;;;;;4431007;28;660022;-70
2021/11/29 00:42:21;;;;;;;91.90;22.30;;;0.30;99.90;;;;;;4436702;28;659753;-70
2021/11/29 00:45:10;;;;;;;86.23;24.70;;;0.30;99.90;;;;;;4455438;28;659950;-70
2021/11/29 00:48:01;;;;;;;91.90;22.93;;;0.30;99.90;;;;;;4432363;28;660292;-70
2021/11/29 00:50:48;;;;;;;66.13;18.97;;;0.40;99.90;;;;;;4429282;28;659171;-70
2021/11/29 00:53:38;;;;;;;100.37;23.67;;;0.40;99.90;;;;;;4432840;28;658075;-70
2021/11/29 00:56:26;;;;;;;57.20;16.60;;;0.40;99.90;;;;;;4446490;28;660830;-70
2021/11/29 00:59:14;;;;;;;98.93;22.90;;;0.40;99.90;;;;;;4455018;28;659714;-70
2021/11/29 01:02:01;;;;;;;85.07;22.40;;;0.40;99.90;;;;;;4436458;28;658610;-69
2021/11/29 01:04:49;;;;;;;63.30;18.47;;;0.40;99.90;;;;;;4452013;28;658600;-70
2021/11/29 01:07:37;;;;;;;75.87;21.13;;;0.30;99.90;;;;;;4438996;28;658923;-70
2021/11/29 01:10:27;;;;;;;75.17;21.03;;;0.30;99.90;;;;;;4455320;28;658763;-70
2021/11/29 01:13:15;;;;;;;60.07;15.23;;;0.20;99.90;;;;;;4430400;28;659571;-70
2021/11/29 01:16:03;;;;;;;72.67;19.50;;;0.20;99.90;;;;;;4431274;28;660815;-70
2021/11/29 01:18:51;;;;;;;34.07;12.57;;;0.20;99.90;;;;;;4445822;28;658685;-70
2021/11/29 01:21:38;;;;;;;54.27;15.03;;;0.20;99.90;;;;;;4459922;28;659867;-70
2021/11/29 01:24:26;;;;;;;65.87;17.43;;;0.20;99.90;;;;;;4434130;28;658982;-70
2021/11/29 01:27:15;;;;;;;58.50;17.27;;;0.20;99.90;;;;;;4452842;28;658867;-70
2021/11/29 01:30:03;;;;;;;59.83;15.67;;;0.20;99.90;;;;;;4433006;28;659702;-70
2021/11/29 01:32:50;;;;;;;40.50;10.73;;;0.20;99.90;;;;;;4442324;28;658487;-71
2021/11/29 01:35:38;;;;;;;58.03;14.60;;;0.20;99.90;;;;;;4460134;28;660127;-69
2021/11/29 01:38:26;;;;;;;68.73;17.87;;;0.20;99.90;;;;;;4434667;28;659543;-70
2021/11/29 01:41:16;;;;;;;64.27;19.10;;;0.20;99.90;;;;;;4455309;28;659107;-70
2021/11/29 01:44:06;;;;;;;50.63;15.13;;;0.20;99.90;;;;;;4428859;28;659898;-71
2021/11/29 01:46:53;;;;;;;64.07;19.40;;;0.20;99.90;;;;;;4427818;28;659433;-69
2021/11/29 01:49:41;;;;;;;54.73;17.70;;;0.20;99.90;;;;;;4437351;28;658497;-71
2021/11/29 01:52:28;;;;;;;68.47;19.42;;;0.20;99.90;;;;;;4453234;28;659285;-69
2021/11/29 01:55:16;;;;;;;54.17;16.93;;;0.20;99.90;;;;;;4435673;28;658398;-70
2021/11/29 01:58:04;;;;;;;56.27;16.83;;;0.20;99.90;;;;;;4451012;28;659937;-69
2021/11/29 02:00:54;;;;;;;58.97;17.80;;;0.20;99.90;;;;;;4431990;28;658579;-70
2021/11/29 02:03:43;;;;;;;75.63;18.40;;;0.20;99.90;;;;;;4430949;28;659942;-70
2021/11/29 02:06:32;;;;;;;37.50;13.53;;;0.20;99.90;;;;;;4443545;28;658425;-69
2021/11/29 02:09:19;;;;;;;76.28;17.83;;;0.20;99.90;;;;;;4449213;28;659529;-69
2021/11/29 02:12:08;;;;;;;54.07;14.77;;;0.20;99.90;;;;;;4431897;28;658843;-70
2021/11/29 02:14:55;;;;;;;52.07;16.97;;;0.20;99.90;;;;;;4439576;28;659235;-71
2021/11/29 02:17:45;;;;;;;70.27;17.90;;;0.20;99.90;;;;;;4455293;28;659435;-70
2021/11/29 02:20:34;;;;;;;59.67;18.80;;;0.20;99.90;;;;;;4433740;28;658554;-70
2021/11/29 02:23:22;;;;;;;52.75;16.95;;;0.20;99.90;;;;;;4435244;28;658295;-70
2021/11/29 02:26:09;;;;;;;58.73;18.50;;;0.20;99.90;;;;;;4452512;28;658895;-70
2021/11/29 02:28:58;;;;;;;47.33;15.60;;;0.20;99.90;;;;;;4431884;28;658290;-71
2021/11/29 02:31:48;;;;;;;50.70;16.70;;;0.10;99.90;;;;;;4436557;28;658834;-71
2021/11/29 02:34:36;;;;;;;47.77;15.17;;;0.10;99.90;;;;;;4435779;28;659739;-71
2021/11/29 02:37:25;;;;;;;37.13;13.93;;;0.10;99.90;;;;;;4451195;28;660057;-70
2021/11/29 02:40:13;;;;;;;38.27;15.17;;;0.10;99.90;;;;;;4426972;28;659235;-70
2021/11/29 02:43:01;;;;;;;34.05;11.13;;;0.20;99.90;;;;;;4437485;28;658575;-71
2021/11/29 02:45:48;;;;;;;42.70;14.57;;;0.10;99.90;;;;;;4449136;28;659242;-71
2021/11/29 02:48:41;;;;;;;37.87;14.10;;;0.20;99.90;;;;;;4439901;28;658862;-71
2021/11/29 02:51:29;;;;;;;31.10;12.73;;;0.20;99.90;;;;;;4432041;28;660027;-70
2021/11/29 02:54:20;;;;;;;39.37;14.10;;;0.30;99.90;;;;;;4431574;28;659162;-70
2021/11/29 02:57:08;;;;;;;35.50;13.87;;;0.30;99.90;;;;;;4432980;28;659817;-70
2021/11/29 02:59:56;;;;;;;39.93;14.33;;;0.30;99.90;;;;;;4436485;28;658474;-70
2021/11/29 03:02:44;;;;;;;48.00;16.03;;;0.30;99.90;;;;;;4450082;28;659875;-70
2021/11/29 03:05:31;;;;;;;46.60;15.97;;;0.30;99.90;;;;;;4428035;28;658772;-71
2021/11/29 03:08:19;;;;;;;39.27;14.43;;;0.30;99.90;;;;;;4449571;28;659092;-71
2021/11/29 03:11:08;;;;;;;43.97;15.97;;;0.30;99.90;;;;;;4430692;28;659262;-70
2021/11/29 03:13:56;;;;;;;46.22;16.67;;;0.30;99.90;;;;;;4430197;28;659389;-71
2021/11/29 03:16:43;;;;;;;43.03;16.33;;;0.40;99.90;;;;;;4451080;28;659367;-70
2021/11/29 03:19:32;;;;;;;42.23;13.20;;;0.40;99.90;;;;;;4430647;28;658884;-70
2021/11/29 03:22:20;;;;;;;48.93;17.40;;;0.30;99.90;;;;;;4451262;28;658988;-70
2021/11/29 03:25:09;;;;;;;35.97;13.43;;;0.30;99.90;;;;;;4429084;28;660293;-71
2021/11/29 03:27:58;;;;;;;44.40;16.23;;;0.30;99.90;;;;;;4434253;28;658696;-71
2021/11/29 03:30:45;;;;;;;40.47;16.00;;;0.30;99.90;;;;;;4441068;28;659012;-71
2021/11/29 03:33:33;;;;;;;43.70;16.97;;;0.30;99.90;;;;;;4451882;28;660094;-70
2021/11/29 03:36:21;;;;;;;35.57;15.73;;;0.30;99.90;;;;;;4429992;28;658667;-71
2021/11/29 03:39:10;;;;;;;26.90;9.50;;;0.30;99.90;;;;;;4453401;28;659688;-70
2021/11/29 03:42:00;;;;;;;51.33;18.80;;;0.30;99.90;;;;;;4423712;28;659576;-70
2021/11/29 03:44:49;;;;;;;38.20;13.03;;;0.30;99.90;;;;;;4430508;28;659040;-70
2021/11/29 03:47:36;;;;;;;49.83;20.17;;;0.30;99.90;;;;;;4434222;28;659218;-70
2021/11/29 03:50:24;;;;;;;59.83;20.50;;;0.30;99.90;;;;;;4457338;28;659599;-70
2021/11/29 03:53:11;;;;;;;60.50;20.90;;;0.30;99.90;;;;;;4431525;28;658647;-70
2021/11/29 03:55:59;;;;;;;34.43;12.60;;;0.30;99.90;;;;;;4449660;28;659063;-71
2021/11/29 03:58:47;;;;;;;59.13;21.47;;;0.30;99.90;;;;;;4436773;28;658838;-71
2021/11/29 04:01:36;;;;;;;54.50;20.70;;;0.30;99.90;;;;;;4446609;28;658582;-70
2021/11/29 04:04:23;;;;;;;42.13;16.20;;;0.30;99.90;;;;;;4429816;28;660220;-69
2021/11/29 04:07:11;;;;;;;49.30;15.97;;;0.30;99.90;;;;;;4431855;28;659310;-70
2021/11/29 04:09:59;;;;;;;53.23;21.00;;;0.30;99.90;;;;;;4448651;28;659342;-70
2021/11/29 04:12:46;;;;;;;52.87;21.03;;;0.30;99.90;;;;;;4434355;28;658333;-70
2021/11/29 04:15:34;;;;;;;52.80;20.77;;;0.30;99.90;;;;;;4449244;28;658466;-70
2021/11/29 04:18:23;;;;;;;40.37;16.87;;;0.30;99.90;;;;;;4432292;28;658837;-70
2021/11/29 04:21:12;;;;;;;43.30;19.70;;;0.30;99.90;;;;;;4431865;28;658664;-71
2021/11/29 04:24:00;;;;;;;38.57;16.63;;;0.20;99.90;;;;;;4454436;28;659376;-70
2021/11/29 04:26:51;;;;;;;40.50;17.03;;;0.20;99.90;;;;;;4430453;28;659975;-71
2021/11/29 04:29:41;;;;;;;33.80;15.52;;;0.30;99.90;;;;;;4428893;28;659945;-70
2021/11/29 04:32:29;;;;;;;41.07;16.70;;;0.30;99.90;;;;;;4435426;28;659192;-70
2021/11/29 04:35:18;;;;;;;35.93;15.37;;;0.30;99.90;;;;;;4434193;28;658972;-71
2021/11/29 04:38:05;;;;;;;37.33;16.17;;;0.30;99.90;;;;;;4443497;28;658812;-70
2021/11/29 04:40:53;;;;;;;37.50;15.93;;;0.20;99.90;;;;;;4454081;28;659186;-70
2021/11/29 04:43:41;;;;;;;38.70;14.27;;;0.20;99.90;;;;;;4438085;28;658725;-70
2021/11/29 04:46:28;;;;;;;37.20;13.90;;;0.20;99.90;;;;;;4458884;28;659720;-70
2021/11/29 04:49:16;;;;;;;33.17;15.20;;;0.20;99.90;;;;;;4432499;28;658644;-70
2021/11/29 04:52:06;;;;;;;27.45;11.65;;;0.30;99.90;;;;;;4457759;28;660514;-70
2021/11/29 04:54:53;;;;;;;32.23;13.67;;;0.30;99.90;;;;;;4431346;28;659154;-70
2021/11/29 04:57:42;;;;;;;31.47;12.93;;;0.20;99.90;;;;;;4441200;28;659742;-70
2021/11/29 05:00:30;;;;;;;38.10;16.10;;;0.20;99.90;;;;;;4459249;28;658595;-70
2021/11/29 05:03:18;;;;;;;30.43;11.33;;;0.20;99.90;;;;;;4436236;28;660043;-70
2021/11/29 05:06:06;;;;;;;30.90;13.27;;;0.20;99.90;;;;;;4449355;28;659051;-70
2021/11/29 05:08:55;;;;;;;39.87;14.50;;;0.20;99.90;;;;;;4454789;28;659139;-70
2021/11/29 05:11:43;;;;;;;37.53;15.48;;;0.10;99.90;;;;;;4431776;28;660484;-70
2021/11/29 05:14:31;;;;;;;37.40;14.03;;;0.10;99.90;;;;;;4445462;28;658464;-70
2021/11/29 05:17:19;;;;;;;50.87;12.77;;;0.10;99.90;;;;;;4458476;28;658918;-70
2021/11/29 05:20:07;;;;;;;48.67;16.23;;;0.10;99.90;;;;;;4442071;28;658621;-70
2021/11/29 05:22:55;;;;;;;29.33;12.37;;;0.10;99.90;;;;;;4459206;28;659042;-70
2021/11/29 05:25:44;;;;;;;42.07;14.70;;;0.10;99.90;;;;;;4426967;28;659411;-70
2021/11/29 05:28:32;;;;;;;36.03;14.63;;;0.10;99.90;;;;;;4431590;28;658609;-70
2021/11/29 05:31:19;;;;;;;45.53;15.80;;;0.10;99.90;;;;;;4451697;28;659232;-70
2021/11/29 05:34:07;;;;;;;52.50;16.77;;;0.20;99.90;;;;;;4434855;28;658482;-71
2021/11/29 05:36:55;;;;;;;47.50;16.33;;;0.20;99.90;;;;;;4450203;28;658996;-70
2021/11/29 05:39:42;;;;;;;51.20;17.27;;;0.20;99.90;;;;;;4429147;28;660636;-70
2021/11/29 05:42:32;;;;;;;34.27;9.77;;;0.20;99.90;;;;;;4446772;28;658761;-70
2021/11/29 05:45:20;;;;;;;55.13;18.05;;;0.20;99.90;;;;;;4455283;28;657686;-70
2021/11/29 05:48:08;;;;;;;37.23;14.30;;;0.20;99.90;;;;;;4429992;28;659880;-70
2021/11/29 05:50:56;;;;;;;46.80;12.10;;;0.20;99.90;;;;;;4431777;28;658820;-70
2021/11/29 05:53:44;;;;;;;58.57;17.00;;;0.20;99.90;;;;;;4455308;28;659624;-70
2021/11/29 05:56:31;;;;;;;61.73;18.57;;;0.20;99.90;;;;;;4429419;28;658582;-70
2021/11/29 05:59:21;;;;;;;76.17;20.93;;;0.20;99.90;;;;;;4449083;28;659514;-71
2021/11/29 06:02:09;;;;;;;73.73;18.40;;;0.10;99.90;;;;;;4428348;28;658436;-70
2021/11/29 06:04:57;;;;;;;62.37;16.10;;;0.10;99.90;;;;;;4432648;28;658892;-71
2021/11/29 06:07:45;;;;;;;63.85;19.42;;;0.10;99.90;;;;;;4453763;28;658734;-70
2021/11/29 06:10:32;;;;;;;68.00;18.83;;;0.10;99.90;;;;;;4432235;28;659986;-70
2021/11/29 06:13:20;;;;;;;59.77;20.47;;;0.10;99.90;;;;;;4448332;28;659046;-71
2021/11/29 06:16:10;;;;;;;45.77;16.50;;;0.10;99.90;;;;;;4458100;28;659725;-69
2021/11/29 06:18:57;;;;;;;53.37;18.13;;;0.10;99.90;;;;;;4434127;28;659655;-69
2021/11/29 06:21:46;;;;;;;53.40;17.07;;;0.10;99.90;;;;;;4449724;28;658674;-70
2021/11/29 06:24:33;;;;;;;57.37;15.67;;;0.20;99.90;;;;;;4451171;28;658037;-70
2021/11/29 06:27:21;;;;;;;67.73;18.93;;;0.20;99.90;;;;;;4431573;28;658461;-70
2021/11/29 06:30:09;;;;;;;63.90;17.03;;;0.10;99.90;;;;;;4456260;28;659375;-69
2021/11/29 06:32:58;;;;;;;55.97;13.87;;;0.10;99.90;;;;;;4431253;28;658419;-70
2021/11/29 06:35:46;;;;;;;80.23;19.20;;;0.10;99.90;;;;;;4431287;28;658601;-70
2021/11/29 06:38:34;;;;;;;69.65;19.80;;;0.20;99.90;;;;;;4457451;28;659336;-69
2021/11/29 06:41:21;;;;;;;66.30;19.13;;;0.10;99.90;;;;;;4434736;28;659386;-70
2021/11/29 06:44:09;;;;;;;56.80;17.30;;;0.20;99.90;;;;;;4457703;28;659100;-70
2021/11/29 06:46:57;;;;;;;110.83;20.63;;;0.20;99.90;;;;;;4435613;27;659022;-69
2021/11/29 06:49:47;;;;;;;61.77;18.63;;;0.20;99.90;;;;;;4455843;28;660022;-69
2021/11/29 06:52:35;;;;;;;58.90;17.00;;;0.20;99.90;;;;;;4427335;28;658761;-70
2021/11/29 06:55:41;;;;;;;57.43;17.63;;;0.10;99.90;;;;;;4434660;28;659288;-69
2021/11/29 06:58:29;;;;;;;64.07;16.43;;;0.20;99.90;;;;;;4439714;28;659145;-70
2021/11/29 07:01:20;;;;;;;57.83;17.20;;;0.20;99.90;;;;;;4434528;28;658619;-70
2021/11/29 07:04:08;;;;;;;44.77;14.87;;;0.20;99.90;;;;;;4438963;28;659253;-70
2021/11/29 07:06:58;;;;;;;50.20;13.90;;;0.10;99.90;;;;;;4434044;28;658281;-70
2021/11/29 07:09:46;;;;;;;37.20;12.43;;;0.10;99.90;;;;;;4434540;28;658328;-70
2021/11/29 07:12:34;;;;;;;46.00;17.07;;;0.10;99.90;;;;;;4455996;28;659060;-69
2021/11/29 07:15:43;;;;;;;43.17;15.07;;;0.20;99.90;;;;;;4433814;28;658637;-70
2021/11/29 07:18:31;;;;;;;50.00;15.27;;;0.10;99.90;;;;;;4413982;28;658835;-70
2021/11/29 07:21:19;;;;;;;62.23;17.07;;;0.20;99.90;;;;;;4458968;28;660098;-70
2021/11/29 07:24:10;;;;;;;36.00;13.23;;;0.20;99.90;;;;;;4433267;28;658898;-70
2021/11/29 07:26:57;;;;;;;57.97;17.73;;;0.20;99.90;;;;;;4429377;28;660151;-70
2021/11/29 07:29:45;;;;;;;43.10;12.07;;;0.20;99.90;;;;;;4458957;28;658278;-70
2021/11/29 07:32:33;;;;;;;57.23;18.23;;;0.20;99.90;;;;;;4431694;28;659459;-71
2021/11/29 07:35:21;;;;;;;55.75;18.48;;;0.20;99.90;;;;;;4439286;28;659026;-70
2021/11/29 07:38:09;;;;;;;59.53;21.00;;;0.20;99.90;;;;;;4461794;28;659424;-69
2021/11/29 07:40:58;;;;;;;52.27;17.20;;;0.20;99.90;;;;;;4434179;28;658907;-70
2021/11/29 07:43:46;;;;;;;58.53;18.48;;;0.20;99.90;;;;;;4438451;28;658736;-70
2021/11/29 07:46:33;;;;;;;57.73;20.57;;;0.30;99.90;;;;;;4457209;28;658772;-70
2021/11/29 07:49:21;;;;;;;47.30;16.00;;;0.20;99.90;;;;;;4440609;28;658357;-70
2021/11/29 07:52:09;;;;;;;60.27;20.37;;;0.20;99.90;;;;;;4454734;28;659894;-70
2021/11/29 07:54:57;;;;;;;39.55;16.98;;;0.20;99.90;;;;;;4433888;28;658672;-69
2021/11/29 07:57:46;;;;;;;48.90;18.60;;;0.20;99.90;;;;;;4455705;28;658993;-69
2021/11/29 08:00:35;;;;;;;48.70;17.67;;;0.20;99.90;;;;;;4434715;28;659480;-70
2021/11/29 08:03:23;;;;;;;41.80;15.73;;;0.20;99.90;;;;;;4438535;28;659535;-70
2021/11/29 08:06:11;;;;;;;46.63;17.93;;;0.20;99.90;;;;;;4442168;28;659200;-70
2021/11/29 08:08:58;;;;;;;48.07;19.40;;;0.20;99.90;;;;;;4461792;28;659520;-70
2021/11/29 08:11:46;;;;;;;48.33;20.03;;;0.20;99.90;;;;;;4441176;28;658600;-70
2021/11/29 08:14:35;;;;;;;46.57;13.70;;;0.30;99.90;;;;;;4456354;28;659621;-70
2021/11/29 08:17:23;;;;;;;45.47;16.50;;;0.30;99.90;;;;;;4432295;28;660072;-70
2021/11/29 08:20:12;;;;;;;44.90;15.30;;;0.30;99.90;;;;;;4436316;28;658844;-70
2021/11/29 08:22:59;;;;;;;50.80;18.90;;;0.20;99.90;;;;;;4457964;28;659206;-70
2021/11/29 08:25:47;;;;;;;49.73;19.17;;;0.20;99.90;;;;;;4440434;28;658975;-69
2021/11/29 08:28:35;;;;;;;45.33;17.10;;;0.20;99.90;;;;;;4460881;28;659383;-70
2021/11/29 08:31:24;;;;;;;46.17;19.10;;;0.20;99.90;;;;;;4440270;28;661012;-70
2021/11/29 08:34:13;;;;;;;37.42;15.07;;;0.10;99.90;;;;;;4441374;28;658607;-69
2021/11/29 08:37:01;;;;;;;26.27;11.30;;;0.20;99.90;;;;;;4440399;28;658846;-70
2021/11/29 08:39:49;;;;;;;36.77;15.80;;;0.10;99.90;;;;;;4460691;28;659083;-69
2021/11/29 08:42:36;;;;;;;30.33;13.40;;;0.10;99.90;;;;;;4444722;28;658663;-70
2021/11/29 08:45:24;;;;;;;41.77;15.47;;;0.20;99.90;;;;;;4456063;28;659676;-69
2021/11/29 08:48:13;;;;;;;42.73;16.23;;;0.20;99.90;;;;;;4440874;28;658697;-70
2021/11/29 08:51:01;;;;;;;47.23;17.87;;;0.20;99.90;;;;;;4441949;28;659078;-70
2021/11/29 08:53:49;;;;;;;46.57;16.47;;;0.20;99.90;;;;;;4448509;28;659173;-69
2021/11/29 08:56:37;;;;;;;41.70;17.60;;;0.20;99.90;;;;;;4435521;28;658461;-70
2021/11/29 08:59:25;;;;;;;43.80;19.60;;;0.20;99.90;;;;;;4461682;28;658402;-70
2021/11/29 09:02:13;;;;;;;46.97;18.33;;;0.20;99.90;;;;;;4433080;28;659997;-69
2021/11/29 09:05:03;;;;;;;44.42;17.00;;;0.20;99.90;;;;;;4442946;28;658424;-70
2021/11/29 09:07:51;;;;;;;47.27;18.47;;;0.20;99.90;;;;;;4437226;28;658792;-70
2021/11/29 09:10:39;;;;;;;74.07;18.60;;;0.20;99.90;;;;;;4458771;28;657936;-70
2021/11/29 09:13:30;;;;;;;35.03;14.18;;;0.20;99.90;;;;;;4441094;27;658469;-70
2021/11/29 09:16:18;;;;;;;40.70;16.50;;;0.20;99.90;;;;;;4438698;28;660317;-70
2021/11/29 09:19:06;;;;;;;38.07;17.50;;;0.30;99.90;;;;;;4438459;28;659120;-70
2021/11/29 09:21:55;;;;;;;38.58;16.30;;;0.30;99.90;;;;;;4463182;28;658554;-70
2021/11/29 09:24:43;;;;;;;44.60;16.53;;;0.20;99.90;;;;;;4434305;28;659698;-69
2021/11/29 09:27:31;;;;;;;36.10;14.73;;;0.20;99.90;;;;;;4442058;28;658869;-70
2021/11/29 09:30:19;;;;;;;41.23;18.47;;;0.20;99.90;;;;;;4463755;28;659410;-70
2021/11/29 09:33:06;;;;;;;32.63;13.40;;;0.20;99.90;;;;;;4443338;28;659092;-70
2021/11/29 09:35:54;;;;;;;31.37;12.87;;;0.30;99.90;;;;;;4463819;28;659306;-70
2021/11/29 09:38:43;;;;;;;30.10;12.70;;;0.30;99.90;;;;;;4442992;28;659653;-70
2021/11/29 09:41:31;;;;;;;36.03;15.90;;;0.20;99.90;;;;;;4441820;28;658921;-70
2021/11/29 09:44:19;;;;;;;35.30;15.33;;;0.20;99.90;;;;;;4464147;28;659335;-70
2021/11/29 09:47:07;;;;;;;29.70;12.50;;;0.20;99.90;;;;;;4444014;28;658523;-70
2021/11/29 09:49:57;;;;;;;32.73;14.57;;;0.30;99.90;;;;;;4461550;28;659407;-70
2021/11/29 09:52:44;;;;;;;31.70;14.73;;;0.30;99.90;;;;;;4440110;28;659075;-69
2021/11/29 09:55:34;;;;;;;29.43;13.67;;;0.30;99.90;;;;;;4443902;28;658919;-70
2021/11/29 09:58:21;;;;;;;32.28;14.55;;;0.30;99.90;;;;;;4440428;28;658661;-70
2021/11/29 10:01:09;;;;;;;25.10;11.23;;;0.30;99.90;;;;;;4460360;28;658740;-69
2021/11/29 10:03:57;;;;;;;22.13;8.90;;;0.30;99.90;;;;;;4445087;27;658592;-70
2021/11/29 10:06:46;;;;;;;27.57;12.60;;;0.20;99.90;;;;;;4471168;27;657508;-70
2021/11/29 10:09:36;;;;;;;19.27;8.93;;;0.20;99.90;;;;;;4435981;27;659557;-69
2021/11/29 10:12:28;;;;;;;30.17;12.77;;;0.20;99.90;;;;;;4447235;27;658262;-69
2021/11/29 10:15:24;;;;;;;26.77;12.93;;;0.20;99.90;;;;;;4426022;27;658691;-70
2021/11/29 10:18:13;;;;;;;26.00;13.05;;;0.20;99.90;;;;;;4419356;27;659334;-70
2021/11/29 10:21:05;;;;;;;30.93;13.23;;;0.20;99.90;;;;;;4452854;27;659091;-70
2021/11/29 10:23:54;;;;;;;30.30;12.50;;;0.20;99.90;;;;;;4441690;27;659123;-70
2021/11/29 10:26:42;;;;;;;27.20;12.90;;;0.10;99.90;;;;;;4444923;28;658468;-68
2021/11/29 10:29:31;;;;;;;30.00;13.43;;;0.20;99.90;;;;;;4457444;28;658693;-69
2021/11/29 10:32:30;;;;;;;28.20;12.03;;;0.20;99.90;;;;;;4437337;28;659299;-69
2021/11/29 10:35:24;;;;;;;28.13;13.55;;;0.20;99.90;;;;;;4442071;28;658304;-69
2021/11/29 10:38:14;;;;;;;31.47;13.13;;;0.30;99.90;;;;;;4443112;27;658698;-70
2021/11/29 10:41:02;;;;;;;28.90;13.97;;;0.30;99.90;;;;;;4445497;27;658997;-69
2021/11/29 10:43:49;;;;;;;26.80;13.53;;;0.40;99.90;;;;;;4467679;27;659568;-69
2021/11/29 10:46:39;;;;;;;29.57;13.70;;;0.40;99.90;;;;;;4450516;27;658340;-69
2021/11/29 10:49:29;;;;;;;27.57;10.77;;;0.40;99.90;;;;;;4441337;28;658905;-68
2021/11/29 10:52:17;;;;;;;24.90;10.57;;;0.30;99.90;;;;;;4442601;27;658747;-68
2021/11/29 10:55:07;;;;;;;16.17;8.60;;;0.30;99.90;;;;;;4459120;27;658721;-69
2021/11/29 10:57:54;;;;;;;24.87;10.90;;;0.30;99.90;;;;;;4461920;27;658479;-69
2021/11/29 11:00:42;;;;;;;27.07;12.57;;;0.20;99.90;;;;;;4446315;27;658358;-69
2021/11/29 11:03:55;;;;;;;24.47;11.60;;;0.20;99.90;;;;;;4464993;27;659606;-71
2021/11/29 11:06:44;;;;;;;30.07;13.37;;;0.20;99.90;;;;;;4416296;27;659158;-69
2021/11/29 11:09:33;;;;;;;26.03;13.10;;;0.20;99.90;;;;;;4439731;27;658688;-70
2021/11/29 11:12:21;;;;;;;29.47;12.87;;;0.20;99.90;;;;;;4456317;27;658607;-70
2021/11/29 11:15:09;;;;;;;29.37;13.17;;;0.20;99.90;;;;;;4457036;27;659432;-69
2021/11/29 11:17:58;;;;;;;30.73;12.70;;;0.20;99.90;;;;;;4440333;27;659989;-70
2021/11/29 11:20:50;;;;;;;26.07;12.43;;;0.30;99.90;;;;;;4439786;28;658589;-70
2021/11/29 11:23:38;;;;;;;29.57;13.00;;;0.30;99.90;;;;;;4436655;28;659049;-70
2021/11/29 11:26:32;;;;;;;22.60;10.73;;;0.30;99.90;;;;;;4442738;28;658648;-70
2021/11/29 11:29:47;;;;;;;27.60;12.87;;;0.30;99.90;;;;;;4457071;28;658526;-70
2021/11/29 11:32:35;;;;;;;24.70;12.20;;;0.30;99.90;;;;;;4437867;28;659793;-69
2021/11/29 11:35:24;;;;;;;24.67;11.30;;;0.30;99.90;;;;;;4442288;27;660084;-69
2021/11/29 11:38:14;;;;;;;23.20;11.23;;;0.30;99.90;;;;;;4441842;28;659206;-69
2021/11/29 11:41:02;;;;;;;26.87;12.10;;;0.30;99.90;;;;;;4438203;28;659863;-69
2021/11/29 11:43:50;;;;;;;25.93;13.23;;;0.30;99.90;;;;;;4464482;28;658633;-69
2021/11/29 11:46:37;;;;;;;24.67;12.67;;;0.20;99.90;;;;;;4444772;27;658876;-70
2021/11/29 11:49:26;;;;;;;25.40;11.60;;;0.30;99.90;;;;;;4460845;27;658159;-70
2021/11/29 11:52:16;;;;;;;14.30;6.70;;;0.30;99.90;;;;;;4461864;27;659425;-71
2021/11/29 11:55:06;;;;;;;23.37;11.17;;;0.30;99.90;;;;;;4442995;27;657253;-69
2021/11/29 11:57:54;;;;;;;19.97;10.17;;;0.20;99.90;;;;;;4436070;27;660306;-69
2021/11/29 12:00:43;;;;;;;27.57;12.27;;;0.20;99.90;;;;;;4439938;27;658806;-69
2021/11/29 12:03:32;;;;;;;29.37;13.50;;;0.20;99.90;;;;;;4445958;27;658861;-70
2021/11/29 12:06:20;;;;;;;31.00;16.20;;;0.20;99.90;;;;;;4460963;27;658658;-69
2021/11/29 12:09:09;;;;;;;30.52;13.38;;;0.20;99.90;;;;;;4440777;27;660192;-69
2021/11/29 12:12:02;;;;;;;17.83;8.17;;;0.20;99.90;;;;;;4447523;27;658819;-70
2021/11/29 12:14:49;;;;;;;26.13;14.63;;;0.20;99.90;;;;;;4425464;28;657927;-69
2021/11/29 12:17:46;;;;;;;27.13;13.70;;;0.20;99.90;;;;;;4438055;27;660326;-70
2021/11/29 12:20:34;;;;;;;19.70;9.53;;;0.20;99.90;;;;;;4437988;28;659578;-69
2021/11/29 12:23:40;;;;;;;23.40;11.70;;;0.20;99.90;;;;;;4443111;27;657564;-70
2021/11/29 12:27:01;;;;;;;31.60;15.83;;;0.20;99.90;;;;;;4415852;27;658766;-69
2021/11/29 12:29:54;;;;;;;27.33;12.53;;;0.10;99.90;;;;;;4439469;27;658962;-69
2021/11/29 12:32:51;;;;;;;22.30;10.93;;;0.10;99.90;;;;;;4417614;27;658837;-70
2021/11/29 12:35:40;;;;;;;18.97;9.93;;;0.10;99.90;;;;;;4432533;27;659115;-70
2021/11/29 12:38:28;;;;;;;29.33;15.73;;;0.10;99.90;;;;;;4444061;27;658898;-70
2021/11/29 12:41:35;;;;;;;29.20;14.93;;;0.10;99.90;;;;;;4447562;27;658729;-70
2021/11/29 12:44:48;;;;;;;28.00;14.73;;;0.10;99.90;;;;;;4418181;27;659362;-69
2021/11/29 12:47:42;;;;;;;29.73;14.00;;;0.00;99.90;;;;;;4418809;27;659748;-70
2021/11/29 12:50:35;;;;;;;25.10;12.30;;;0.00;99.90;;;;;;4437932;27;659563;-70
2021/11/29 12:53:32;;;;;;;27.93;15.33;;;0.10;99.90;;;;;;4412212;27;658964;-69
2021/11/29 12:56:23;;;;;;;23.53;10.60;;;0.10;99.90;;;;;;4430350;27;659045;-71
2021/11/29 12:59:11;;;;;;;31.00;15.57;;;0.10;99.90;;;;;;4444233;27;658786;-70
2021/11/29 13:02:00;;;;;;;27.17;13.37;;;0.10;99.90;;;;;;4464639;27;659754;-70
2021/11/29 13:04:48;;;;;;;28.03;13.23;;;0.00;99.90;;;;;;4438646;27;660194;-70
2021/11/29 13:08:02;;;;;;;29.70;16.63;;;0.00;99.90;;;;;;4449755;27;659639;-70
2021/11/29 13:10:52;;;;;;;34.30;16.43;;;0.00;99.90;;;;;;4436851;27;659243;-69
2021/11/29 13:13:49;;;;;;;37.07;17.80;;;-0.10;99.90;;;;;;4439929;27;659215;-69
2021/11/29 13:16:42;;;;;;;36.93;18.57;;;0.00;99.90;;;;;;4416313;27;660669;-70
2021/11/29 13:19:38;;;;;;;41.80;19.43;;;0.00;99.90;;;;;;4439744;27;658397;-69
2021/11/29 13:22:26;;;;;;;42.50;21.03;;;0.00;99.90;;;;;;4414407;27;659233;-70
2021/11/29 13:25:14;;;;;;;37.23;16.40;;;0.00;99.90;;;;;;4465019;27;659859;-69
2021/11/29 13:28:02;;;;;;;27.23;13.70;;;-0.10;99.90;;;;;;4443103;27;659049;-69
2021/11/29 13:30:52;;;;;;;25.67;11.03;;;-0.10;99.90;;;;;;4456001;27;659946;-70
2021/11/29 13:33:40;;;;;;;31.07;15.53;;;-0.10;99.90;;;;;;4441401;27;659916;-69
2021/11/29 13:36:47;;;;;;;28.87;13.00;;;-0.20;99.90;;;;;;4441402;27;660845;-69
2021/11/29 13:39:39;;;;;;;24.90;11.30;;;-0.20;99.90;;;;;;4440051;28;660428;-69
2021/11/29 13:42:27;;;;;;;29.23;11.20;;;-0.20;99.90;;;;;;4417536;28;660793;-69
2021/11/29 13:45:16;;;;;;;29.27;12.18;;;-0.20;99.90;;;;;;4458363;27;659626;-70
2021/11/29 13:48:24;;;;;;;32.13;14.70;;;-0.30;99.90;;;;;;4385301;28;659809;-69
2021/11/29 13:51:15;;;;;;;30.57;14.87;;;-0.20;99.90;;;;;;4389926;28;659630;-69
2021/11/29 13:54:45;;;;;;;25.73;11.63;;;-0.30;99.90;;;;;;4385188;28;661200;-69
2021/11/29 13:58:08;;;;;;;27.57;11.40;;;-0.30;99.90;;;;;;4354730;28;661127;-70
2021/11/29 14:00:57;;;;;;;27.33;12.37;;;-0.20;99.90;;;;;;4359283;28;659752;-70
2021/11/29 14:03:46;;;;;;;32.73;15.50;;;-0.20;99.90;;;;;;4396738;28;660096;-69
2021/11/29 14:06:34;;;;;;;27.30;12.13;;;-0.20;99.90;;;;;;4378219;28;660696;-69
2021/11/29 14:09:22;;;;;;;27.17;12.97;;;-0.20;99.90;;;;;;4442452;27;660077;-69
2021/11/29 14:12:09;;;;;;;32.17;15.27;;;-0.30;99.90;;;;;;4467482;27;659781;-69
2021/11/29 14:15:08;;;;;;;32.23;15.17;;;-0.30;99.90;;;;;;4450087;27;659581;-69
2021/11/29 14:17:56;;;;;;;29.07;14.30;;;-0.30;99.90;;;;;;4423467;27;660412;-69